Aérodrome :
LOGIN :

S'inscrire | Disclaimer

   EN    FR    IT 

 










Légende :    VFR   VFR Marginal   IFR   IFR Intensif   IFR Très Intensif
Visi : 
Plafond : 
>= 8 km
>= 3000ft
5 à 8 km
1000 à 3000 ft
1500m à 5 km
500 à 1000 ft
800 à 1500m
200 à 500 ft
< 800m
< 200 ft
Symboles :   Orages  Brouillard  Fortes neiges  Fortes précipitations  Vent > 20 kt
SIGMETs :   Divers  Orages  Givrage  Turbulence  Onde Orograph.  Cendres Volcan.






- Altitude de l'aérodrome : 162 ft
- Code IATA : BOD


LFBD - Bordeaux / Merignac

DERNIER METAR :
  • 032000Z AUTO 27006KT CAVOK 19/14 Q1005 NOSIG

METARs EXPIRÉS :
  • 031930Z AUTO 27009KT CAVOK 19/14 Q1005 NOSIG
  • 031900Z AUTO 27009KT CAVOK 21/13 Q1005 NOSIG
  • 031830Z AUTO 28011KT CAVOK 22/13 Q1005 NOSIG
  • 031800Z AUTO 28012KT CAVOK 22/12 Q1005 NOSIG
  • 031730Z AUTO 28011KT CAVOK 23/12 Q1005 NOSIG

TAF TAF LFBD
Valide du 03 à 18h jusqu'au 05 à 00h UTC


031700Z 0318/0424 30010KT 9999 SCT030 TX22/0318Z TN14/0404Z
BECMG 0320/0322 24008KT
TEMPO 0401/0412 4000 SHRA FEW015CB BKN020TCU
PROB30
TEMPO 0408/0412 27015G25KT 2000 TSRA BKN015CB
BECMG 0412/0414 30010KT
TEMPO 0414/0421 30015G25KT
ATIS : +33 5 57 92 81 04



MET'MAP, la Météo Aéronautique d'un coup d'oeil ! - Copyright ORBIFLY Décembre 2007 - Disclaimer

ORBIFLY MET'MAP TEAM :

Programmation & Développement : Alexandra Zaïnal
Sur une idée originale de : Baudouin d'Aumeries
Assistance à la programmation : Marc-Olivier Méhu
Soutien technique & logistique : Manuel Goepfert

Contact : metmap@orbifly.com




SOURCES & CREDITS :

   NOAA